createdAt,value
2017-06-06T00:00:19.909Z,6.93
2017-06-06T00:02:51.470Z,6.43
2017-06-06T00:05:23.017Z,6.33
2017-06-06T00:07:54.653Z,5.97
2017-06-06T00:10:26.185Z,6.40
2017-06-06T00:12:57.745Z,7.10
2017-06-06T00:15:29.274Z,6.83
2017-06-06T00:18:00.929Z,6.27
2017-06-06T00:20:32.408Z,6.30
2017-06-06T00:23:04.059Z,6.83
2017-06-06T00:25:35.561Z,6.67
2017-06-06T00:28:07.110Z,7.00
2017-06-06T00:30:38.729Z,7.80
2017-06-06T00:33:10.313Z,6.30
2017-06-06T00:35:41.830Z,6.67
2017-06-06T00:38:13.535Z,7.73
2017-06-06T00:40:45.078Z,7.40
2017-06-06T00:43:16.653Z,6.57
2017-06-06T00:45:48.909Z,6.87
2017-06-06T00:48:20.960Z,6.93
2017-06-06T00:50:52.525Z,7.33
2017-06-06T00:53:24.768Z,7.40
2017-06-06T00:55:56.393Z,7.00
2017-06-06T00:58:27.950Z,6.70
2017-06-06T01:00:59.449Z,6.83
2017-06-06T01:03:31.117Z,7.10
2017-06-06T01:06:03.373Z,6.73
2017-06-06T01:08:34.917Z,6.10
2017-06-06T01:11:06.389Z,6.60
2017-06-06T01:13:37.911Z,6.93
2017-06-06T01:16:09.392Z,7.00
2017-06-06T01:18:40.973Z,6.70
2017-06-06T01:21:18.690Z,7.63
2017-06-06T01:23:50.226Z,6.80
2017-06-06T01:26:21.797Z,7.10
2017-06-06T01:28:53.349Z,7.03
2017-06-06T01:31:31.120Z,7.47
2017-06-06T01:34:02.673Z,6.27
2017-06-06T01:36:34.242Z,7.67
2017-06-06T01:39:05.792Z,7.53
2017-06-06T01:41:37.362Z,7.00
2017-06-06T01:44:08.998Z,7.73
2017-06-06T01:46:40.665Z,7.37
2017-06-06T01:49:12.168Z,7.00
2017-06-06T01:51:43.761Z,6.87
2017-06-06T01:54:15.285Z,6.77
2017-06-06T01:56:47.697Z,7.50
2017-06-06T01:59:19.318Z,8.00
2017-06-06T02:01:51.569Z,6.60
2017-06-06T02:04:23.033Z,6.77
2017-06-06T02:06:55.354Z,7.33
2017-06-06T02:09:26.881Z,7.50
2017-06-06T02:11:58.452Z,7.90
2017-06-06T02:14:29.961Z,7.37
2017-06-06T02:17:02.269Z,7.83
2017-06-06T02:19:33.761Z,6.87
2017-06-06T02:22:06.102Z,7.20
2017-06-06T02:24:37.622Z,7.70
2017-06-06T02:27:10.010Z,6.60
2017-06-06T02:29:41.542Z,6.73
2017-06-06T02:32:13.861Z,6.57
2017-06-06T02:34:45.390Z,7.77
2017-06-06T02:37:16.941Z,8.13
2017-06-06T02:39:48.781Z,8.03
2017-06-06T02:42:20.354Z,7.13
2017-06-06T02:44:51.838Z,7.20
2017-06-06T02:47:23.447Z,7.10
2017-06-06T02:49:55.519Z,7.90
2017-06-06T02:52:27.245Z,7.40
2017-06-06T02:54:59.576Z,6.67
2017-06-06T02:57:31.216Z,7.10
2017-06-06T03:00:02.794Z,6.80
2017-06-06T03:02:34.329Z,6.97
2017-06-06T03:05:05.973Z,7.97
2017-06-06T03:07:37.721Z,6.13
2017-06-06T03:10:09.293Z,6.50
2017-06-06T03:12:40.945Z,7.37
2017-06-06T03:15:12.650Z,7.80
2017-06-06T03:17:45.029Z,7.40
2017-06-06T03:20:17.342Z,6.23
2017-06-06T03:23:03.914Z,6.70
2017-06-06T03:25:36.194Z,7.80
2017-06-06T03:28:07.769Z,6.67
2017-06-06T03:30:39.352Z,6.80
2017-06-06T03:33:10.931Z,7.67
2017-06-06T03:35:42.458Z,7.57
2017-06-06T03:38:14.049Z,7.30
2017-06-06T03:40:46.340Z,7.10
2017-06-06T03:43:17.942Z,8.57
2017-06-06T03:45:49.441Z,7.20
2017-06-06T03:48:21.837Z,7.53
2017-06-06T03:50:53.363Z,8.00
2017-06-06T03:53:25.649Z,8.50
2017-06-06T03:55:57.166Z,7.53
2017-06-06T03:58:29.450Z,8.67
2017-06-06T04:01:01.702Z,7.80
2017-06-06T04:03:33.181Z,7.00
2017-06-06T04:06:04.822Z,7.40
2017-06-06T04:08:36.341Z,7.80
2017-06-06T04:11:07.870Z,8.20
2017-06-06T04:13:39.353Z,7.90
2017-06-06T04:16:10.870Z,7.97
2017-06-06T04:18:42.369Z,7.60
2017-06-06T04:21:13.924Z,7.93
2017-06-06T04:23:46.238Z,8.80
2017-06-06T04:26:17.748Z,9.20
2017-06-06T04:28:50.138Z,7.80
2017-06-06T04:31:22.353Z,8.03
2017-06-06T04:33:53.965Z,7.10
2017-06-06T04:36:25.497Z,8.60
2017-06-06T04:38:57.770Z,7.30
2017-06-06T04:41:29.997Z,7.47
2017-06-06T04:44:01.525Z,7.43
2017-06-06T04:46:33.266Z,8.17
2017-06-06T04:49:04.957Z,7.97
2017-06-06T04:51:36.501Z,9.30
2017-06-06T04:54:08.052Z,8.30
2017-06-06T04:56:39.647Z,7.37
2017-06-06T04:59:11.157Z,8.23
2017-06-06T05:01:42.930Z,8.47
2017-06-06T05:04:14.478Z,8.00
2017-06-06T05:06:46.034Z,8.47
2017-06-06T05:09:17.694Z,7.90
2017-06-06T05:11:49.235Z,8.97
2017-06-06T05:14:20.790Z,8.27
2017-06-06T05:16:53.137Z,9.13
2017-06-06T05:19:24.699Z,8.93
2017-06-06T05:21:56.467Z,7.40
2017-06-06T05:24:28.001Z,8.00
2017-06-06T05:27:00.290Z,7.93
2017-06-06T05:29:31.822Z,7.60
2017-06-06T05:32:03.396Z,8.10
2017-06-06T05:34:44.966Z,8.57
2017-06-06T05:37:16.493Z,7.83
2017-06-06T05:39:48.043Z,9.07
2017-06-06T05:42:20.377Z,8.50
2017-06-06T05:44:51.845Z,10.83
2017-06-06T05:47:23.572Z,8.63
2017-06-06T05:49:55.566Z,8.47
2017-06-06T05:52:27.398Z,7.80
2017-06-06T05:54:59.726Z,7.83
2017-06-06T05:57:32.246Z,7.83
2017-06-06T06:00:04.732Z,8.87
2017-06-06T06:02:36.330Z,8.60
2017-06-06T06:05:07.926Z,9.07
2017-06-06T06:07:39.778Z,9.00
2017-06-06T06:10:11.314Z,7.93
2017-06-06T06:12:52.933Z,9.53
2017-06-06T06:15:25.290Z,8.30
2017-06-06T06:17:56.902Z,9.30
2017-06-06T06:20:28.558Z,8.23
2017-06-06T06:23:00.261Z,10.50
2017-06-06T06:25:31.808Z,10.70
2017-06-06T06:28:03.638Z,9.30
2017-06-06T06:30:35.482Z,10.30
2017-06-06T06:33:02.384Z,10.60
2017-06-06T06:35:34.017Z,9.67
2017-06-06T06:38:05.578Z,9.80
2017-06-06T06:40:37.042Z,8.30
2017-06-06T06:43:08.583Z,9.07
2017-06-06T06:45:40.362Z,9.77
2017-06-06T06:48:12.175Z,10.87
2017-06-06T06:50:43.789Z,8.80
2017-06-06T06:53:15.371Z,9.70
2017-06-06T06:55:47.649Z,9.87
2017-06-06T06:58:19.973Z,8.57
2017-06-06T07:00:51.808Z,8.97
2017-06-06T07:03:24.717Z,8.63
2017-06-06T07:05:56.981Z,9.40
2017-06-06T07:08:28.631Z,8.10
2017-06-06T07:11:00.141Z,7.70
2017-06-06T07:13:32.785Z,8.53
2017-06-06T07:16:04.362Z,8.83
2017-06-06T07:18:36.059Z,8.97
2017-06-06T07:21:08.590Z,8.33
2017-06-06T07:23:40.310Z,7.90
2017-06-06T07:26:11.863Z,8.80
2017-06-06T07:28:43.368Z,7.83
2017-06-06T07:31:15.926Z,7.80
2017-06-06T07:33:48.447Z,7.83
2017-06-06T07:36:19.999Z,8.33
2017-06-06T07:38:51.525Z,7.27
2017-06-06T07:41:23.849Z,7.17
2017-06-06T07:43:55.636Z,7.90
2017-06-06T07:46:27.260Z,7.67
2017-06-06T07:48:59.097Z,6.77
2017-06-06T07:51:30.653Z,8.00
2017-06-06T07:54:02.521Z,7.90
2017-06-06T07:56:34.126Z,8.77
2017-06-06T07:59:05.670Z,8.20
2017-06-06T08:01:37.487Z,8.90
2017-06-06T08:04:09.149Z,9.20
2017-06-06T08:06:40.641Z,9.00
2017-06-06T08:09:12.438Z,8.50
2017-06-06T08:12:22.119Z,9.10
2017-06-06T08:14:53.629Z,8.57
2017-06-06T08:17:25.832Z,8.90
2017-06-06T08:19:57.328Z,8.50
2017-06-06T08:22:44.615Z,8.40
2017-06-06T08:25:16.260Z,8.37
2017-06-06T08:27:47.764Z,7.50
2017-06-06T08:30:20.073Z,9.43
2017-06-06T08:32:47.236Z,7.23
2017-06-06T08:35:18.731Z,7.90
2017-06-06T08:37:50.280Z,8.03
2017-06-06T08:40:21.774Z,8.07
2017-06-06T08:42:53.311Z,9.97
2017-06-06T08:45:25.532Z,8.30
2017-06-06T08:47:57.056Z,8.63
2017-06-06T08:50:28.562Z,8.30
2017-06-06T08:53:00.825Z,9.23
2017-06-06T08:55:32.306Z,7.73
2017-06-06T08:58:04.543Z,7.47
2017-06-06T09:00:36.130Z,7.77
2017-06-06T09:03:07.661Z,8.97
2017-06-06T09:05:39.928Z,7.57
2017-06-06T09:08:11.397Z,8.93
2017-06-06T09:10:43.728Z,8.13
2017-06-06T09:13:16.293Z,7.93
2017-06-06T09:15:47.936Z,8.20
2017-06-06T09:18:19.424Z,7.93
2017-06-06T09:20:51.006Z,8.97
2017-06-06T09:23:22.527Z,8.87
2017-06-06T09:25:54.013Z,8.10
2017-06-06T09:28:26.469Z,8.33
2017-06-06T09:30:57.990Z,9.13
2017-06-06T09:33:29.623Z,9.13
2017-06-06T09:36:01.143Z,10.47
2017-06-06T09:38:32.677Z,9.73
2017-06-06T09:41:04.202Z,9.27
2017-06-06T09:43:35.818Z,8.80
2017-06-06T09:46:07.329Z,9.60
2017-06-06T09:48:38.805Z,8.57
2017-06-06T09:51:11.090Z,8.87
2017-06-06T09:53:42.718Z,10.00
2017-06-06T09:56:24.041Z,9.37
2017-06-06T09:58:55.584Z,10.10
2017-06-06T10:01:27.037Z,9.37
2017-06-06T10:03:59.582Z,9.23
2017-06-06T10:06:31.881Z,10.13
2017-06-06T10:09:03.453Z,10.40
2017-06-06T10:11:35.000Z,9.40
2017-06-06T10:14:06.517Z,9.20
2017-06-06T10:16:38.473Z,9.90
2017-06-06T10:19:10.453Z,9.97
2017-06-06T10:21:42.309Z,10.70
2017-06-06T10:24:13.913Z,9.97
2017-06-06T10:26:46.886Z,9.80
2017-06-06T10:29:19.194Z,10.93
2017-06-06T10:31:52.626Z,9.80
2017-06-06T10:34:24.317Z,10.17
2017-06-06T10:36:56.044Z,11.40
2017-06-06T10:39:27.593Z,10.87
2017-06-06T10:41:59.173Z,9.43
2017-06-06T10:44:30.821Z,10.40
2017-06-06T10:47:04.509Z,9.67
2017-06-06T10:49:36.048Z,11.27
2017-06-06T10:52:08.500Z,9.67
2017-06-06T10:54:40.258Z,9.60
2017-06-06T10:57:12.574Z,9.03
2017-06-06T10:59:44.330Z,9.40
2017-06-06T11:02:16.213Z,8.63
2017-06-06T11:04:47.918Z,8.70
2017-06-06T11:07:20.298Z,8.97
2017-06-06T11:09:52.048Z,8.17
2017-06-06T11:12:23.907Z,7.80
2017-06-06T11:14:55.493Z,8.03
2017-06-06T11:17:27.149Z,8.70
2017-06-06T11:19:59.166Z,7.13
2017-06-06T11:22:30.886Z,7.63
2017-06-06T11:25:02.485Z,8.70
2017-06-06T11:27:34.113Z,8.30
2017-06-06T11:30:06.514Z,8.40
2017-06-06T11:32:38.838Z,8.40
2017-06-06T11:35:10.715Z,7.77
2017-06-06T11:37:42.401Z,7.50
2017-06-06T11:40:14.082Z,8.30
2017-06-06T11:42:45.905Z,6.60
2017-06-06T11:45:18.216Z,7.37
2017-06-06T11:47:49.944Z,6.60
2017-06-06T11:50:22.413Z,6.90
2017-06-06T11:52:54.781Z,7.90
2017-06-06T11:55:27.176Z,7.10
2017-06-06T11:57:59.681Z,6.93
2017-06-06T12:00:31.411Z,7.53
2017-06-06T12:03:03.081Z,7.40
2017-06-06T12:05:34.810Z,6.70
2017-06-06T12:08:06.486Z,7.23
2017-06-06T12:10:38.089Z,8.00
2017-06-06T12:13:09.771Z,6.23
2017-06-06T12:15:41.422Z,5.83
2017-06-06T12:18:14.490Z,6.60
2017-06-06T12:20:46.040Z,6.70
2017-06-06T12:23:18.824Z,6.50
2017-06-06T12:25:51.217Z,8.03
2017-06-06T12:28:23.623Z,6.20
2017-06-06T12:30:55.385Z,7.20
2017-06-06T12:33:27.078Z,6.37
2017-06-06T12:35:58.729Z,6.83
2017-06-06T12:38:31.604Z,6.60
2017-06-06T12:41:03.250Z,7.40
2017-06-06T12:43:49.845Z,6.53
2017-06-06T12:46:21.574Z,7.13
2017-06-06T12:48:53.266Z,6.80
2017-06-06T12:51:24.768Z,7.30
2017-06-06T12:53:56.614Z,7.57
2017-06-06T12:56:28.635Z,7.40
2017-06-06T12:59:00.229Z,7.40
2017-06-06T13:01:32.103Z,7.50
2017-06-06T13:04:03.924Z,6.23
2017-06-06T13:06:35.473Z,7.17
2017-06-06T13:09:07.376Z,7.07
2017-06-06T13:11:39.150Z,7.80
2017-06-06T13:14:10.883Z,7.90
2017-06-06T13:16:42.430Z,8.17
2017-06-06T13:19:14.942Z,7.30
2017-06-06T13:21:46.589Z,7.57
2017-06-06T13:24:19.937Z,8.80
2017-06-06T13:26:52.560Z,7.40
2017-06-06T13:29:24.937Z,7.90
2017-06-06T13:31:57.293Z,7.60
2017-06-06T13:34:29.629Z,7.30
2017-06-06T13:37:01.493Z,7.47
2017-06-06T13:39:33.218Z,7.20
2017-06-06T13:42:04.762Z,8.23
2017-06-06T13:44:37.298Z,7.50
2017-06-06T13:47:09.785Z,8.20
2017-06-06T13:49:42.078Z,6.67
2017-06-06T13:52:14.333Z,7.77
2017-06-06T13:54:45.837Z,7.20
2017-06-06T13:57:17.293Z,7.20
2017-06-06T13:59:49.054Z,7.37
2017-06-06T14:02:20.803Z,7.73
2017-06-06T14:04:52.457Z,7.70
2017-06-06T14:07:23.986Z,8.13
2017-06-06T14:09:55.535Z,8.83
2017-06-06T14:12:27.334Z,8.43
2017-06-06T14:14:58.864Z,8.93
2017-06-06T14:17:30.765Z,8.73
2017-06-06T14:20:02.650Z,9.10
2017-06-06T14:22:35.070Z,8.37
2017-06-06T14:25:06.622Z,9.13
2017-06-06T14:27:38.465Z,10.30
2017-06-06T14:30:10.218Z,8.80
2017-06-06T14:32:42.035Z,7.67
2017-06-06T14:35:14.421Z,7.33
2017-06-06T14:37:46.798Z,7.93
2017-06-06T14:40:18.333Z,6.83
2017-06-06T14:42:49.869Z,5.30
2017-06-06T14:45:21.361Z,6.30
2017-06-06T14:47:53.008Z,5.43
2017-06-06T14:50:25.489Z,5.60
2017-06-06T14:52:57.246Z,5.40
2017-06-06T14:55:28.778Z,4.73
2017-06-06T14:58:00.615Z,5.53
2017-06-06T15:00:32.233Z,5.50
2017-06-06T15:03:03.973Z,5.10
2017-06-06T15:05:35.865Z,4.30
2017-06-06T15:08:08.346Z,5.50
2017-06-06T15:10:40.882Z,5.20
2017-06-06T15:13:12.585Z,5.97
2017-06-06T15:15:45.037Z,7.00
2017-06-06T15:18:16.561Z,7.00
2017-06-06T15:20:49.043Z,7.00
2017-06-06T15:23:20.814Z,6.37
2017-06-06T15:25:52.554Z,6.73
2017-06-06T15:28:24.935Z,7.13
2017-06-06T15:30:56.613Z,7.17
2017-06-06T15:33:28.258Z,7.77
2017-06-06T15:36:00.097Z,8.00
2017-06-06T15:38:31.918Z,6.33
2017-06-06T15:41:03.546Z,7.23
2017-06-06T15:43:35.250Z,6.87
2017-06-06T15:46:06.885Z,8.27
2017-06-06T15:48:38.493Z,7.33
2017-06-06T15:51:10.278Z,8.60
2017-06-06T15:53:43.281Z,6.83
2017-06-06T15:56:15.549Z,7.43
2017-06-06T15:58:47.579Z,7.00
2017-06-06T16:01:19.861Z,6.63
2017-06-06T16:03:51.672Z,8.43
2017-06-06T16:06:23.478Z,7.53
2017-06-06T16:08:55.169Z,6.97
2017-06-06T16:11:26.798Z,7.07
2017-06-06T16:13:58.620Z,8.00
2017-06-06T16:16:30.113Z,15.00
2017-06-06T16:19:01.673Z,39.57
2017-06-06T16:21:33.238Z,8.87
2017-06-06T16:24:05.025Z,6.73
2017-06-06T16:26:37.264Z,6.50
2017-06-06T16:29:08.853Z,5.97
2017-06-06T16:31:41.115Z,7.57
2017-06-06T16:34:13.539Z,7.87
2017-06-06T16:36:45.249Z,7.43
2017-06-06T16:39:16.914Z,7.40
2017-06-06T16:41:48.422Z,7.50
2017-06-06T16:44:19.975Z,6.47
2017-06-06T16:46:51.502Z,8.00
2017-06-06T16:49:23.077Z,6.73
2017-06-06T16:51:54.593Z,7.53
2017-06-06T16:54:26.182Z,7.50
2017-06-06T16:56:57.717Z,6.27
2017-06-06T16:59:29.277Z,5.60
2017-06-06T17:02:00.786Z,6.90
2017-06-06T17:04:33.081Z,5.73
2017-06-06T17:07:04.669Z,6.07
2017-06-06T17:09:36.169Z,5.47
2017-06-06T17:12:08.466Z,4.83
2017-06-06T17:14:39.965Z,5.70
2017-06-06T17:17:11.522Z,4.80
2017-06-06T17:19:43.036Z,4.43
2017-06-06T17:22:14.654Z,4.80
2017-06-06T17:24:46.199Z,4.90
2017-06-06T17:27:17.753Z,4.87
2017-06-06T17:29:50.085Z,4.90
2017-06-06T17:32:21.618Z,4.40
2017-06-06T17:34:53.253Z,4.27
2017-06-06T17:37:24.914Z,5.07
2017-06-06T17:39:56.558Z,5.60
2017-06-06T17:42:28.155Z,4.77
2017-06-06T17:44:59.693Z,5.60
2017-06-06T17:47:31.194Z,5.00
2017-06-06T17:49:58.412Z,4.90
2017-06-06T17:52:29.997Z,6.10
2017-06-06T17:55:02.239Z,4.93
2017-06-06T17:57:33.761Z,6.30
2017-06-06T18:00:05.297Z,7.50
2017-06-06T18:02:36.916Z,44.37
2017-06-06T18:05:08.381Z,18.90
2017-06-06T18:07:40.695Z,9.70
2017-06-06T18:10:12.246Z,6.90
2017-06-06T18:12:44.005Z,5.47
2017-06-06T18:15:15.501Z,5.83
2017-06-06T18:17:47.151Z,6.40
2017-06-06T18:20:18.684Z,5.33
2017-06-06T18:22:50.213Z,6.27
2017-06-06T18:25:21.744Z,10.90
2017-06-06T18:27:53.217Z,5.10
2017-06-06T18:30:24.777Z,5.57
2017-06-06T18:32:56.433Z,5.60
2017-06-06T18:35:28.042Z,6.10
2017-06-06T18:37:59.560Z,6.40
2017-06-06T18:40:31.080Z,6.03
2017-06-06T18:43:02.586Z,5.90
2017-06-06T18:45:34.329Z,5.43
2017-06-06T18:48:05.889Z,5.83
2017-06-06T18:50:37.757Z,5.80
2017-06-06T18:53:09.797Z,5.57
2017-06-06T18:55:42.301Z,6.37
2017-06-06T18:58:14.609Z,5.47
2017-06-06T19:00:46.320Z,5.70
2017-06-06T19:03:18.180Z,6.20
2017-06-06T19:05:50.533Z,6.33
2017-06-06T19:08:22.142Z,5.50
2017-06-06T19:10:54.422Z,6.93
2017-06-06T19:13:26.634Z,5.60
2017-06-06T19:15:58.981Z,5.97
2017-06-06T19:18:32.289Z,7.10
2017-06-06T19:21:04.089Z,6.93
2017-06-06T19:23:35.770Z,7.53
2017-06-06T19:26:08.189Z,7.20
2017-06-06T19:28:40.174Z,8.10
2017-06-06T19:31:12.087Z,8.23
2017-06-06T19:33:44.487Z,7.40
2017-06-06T19:36:16.364Z,7.30
2017-06-06T19:38:48.017Z,7.60
2017-06-06T19:41:19.576Z,9.33
2017-06-06T19:43:52.093Z,8.53
2017-06-06T19:46:23.598Z,10.37
2017-06-06T19:48:55.368Z,9.40
2017-06-06T19:51:26.990Z,11.97
2017-06-06T19:53:59.954Z,10.80
2017-06-06T19:56:32.680Z,9.27
2017-06-06T19:59:04.181Z,12.20
2017-06-06T20:01:35.861Z,12.10
2017-06-06T20:04:07.528Z,11.70
2017-06-06T20:06:39.074Z,11.90
2017-06-06T20:09:10.728Z,11.77
2017-06-06T20:11:42.271Z,11.57
2017-06-06T20:14:13.917Z,13.00
2017-06-06T20:16:45.417Z,12.40
2017-06-06T20:19:17.682Z,9.50
2017-06-06T20:21:49.147Z,9.60
2017-06-06T20:24:21.710Z,9.57
2017-06-06T20:26:54.010Z,9.80
2017-06-06T20:29:25.582Z,7.63
2017-06-06T20:31:57.113Z,10.17
2017-06-06T20:34:28.689Z,9.50
2017-06-06T20:37:00.338Z,8.93
2017-06-06T20:39:32.158Z,9.07
2017-06-06T20:42:05.865Z,9.33
2017-06-06T20:44:38.134Z,9.90
2017-06-06T20:47:10.685Z,8.67
2017-06-06T20:49:42.297Z,11.33
2017-06-06T20:52:15.899Z,8.47
2017-06-06T20:54:47.658Z,7.90
2017-06-06T20:57:19.233Z,6.70
2017-06-06T20:59:51.497Z,7.33
2017-06-06T21:02:23.136Z,8.90
2017-06-06T21:04:54.930Z,6.63
2017-06-06T21:07:26.778Z,7.40
2017-06-06T21:09:58.355Z,6.50
2017-06-06T21:12:30.165Z,7.10
2017-06-06T21:15:01.890Z,7.30
2017-06-06T21:17:41.325Z,8.00
2017-06-06T21:20:13.757Z,5.13
2017-06-06T21:22:45.480Z,6.80
2017-06-06T21:25:17.122Z,6.70
2017-06-06T21:27:48.705Z,3.43
2017-06-06T21:30:20.275Z,3.40
2017-06-06T21:32:51.873Z,2.93
2017-06-06T21:35:24.154Z,2.40
2017-06-06T21:37:56.551Z,1.87
2017-06-06T21:40:28.194Z,1.37
2017-06-06T21:42:59.758Z,1.20
2017-06-06T21:45:31.889Z,1.13
2017-06-06T21:48:03.448Z,0.90
2017-06-06T21:50:35.850Z,1.00
2017-06-06T21:53:07.530Z,1.67
2017-06-06T21:55:39.157Z,1.17
2017-06-06T21:58:10.703Z,1.27
2017-06-06T22:00:42.261Z,1.50
2017-06-06T22:03:13.845Z,1.17
2017-06-06T22:05:45.406Z,1.07
2017-06-06T22:08:16.981Z,0.80
2017-06-06T22:10:48.533Z,1.20
2017-06-06T22:13:20.189Z,0.70
2017-06-06T22:15:51.711Z,0.70
2017-06-06T22:18:23.373Z,0.43
2017-06-06T22:20:54.851Z,0.80
2017-06-06T22:23:26.569Z,0.90
2017-06-06T22:25:58.076Z,0.83
2017-06-06T22:28:29.657Z,0.50
2017-06-06T22:31:01.223Z,0.50
2017-06-06T22:33:32.768Z,0.70
2017-06-06T22:36:04.254Z,0.80
2017-06-06T22:38:35.908Z,0.60
2017-06-06T22:41:07.455Z,0.53
2017-06-06T22:43:39.029Z,0.37
2017-06-06T22:46:10.585Z,0.50
2017-06-06T22:48:42.861Z,0.40
2017-06-06T22:51:14.335Z,0.30
2017-06-06T22:53:46.644Z,0.37
2017-06-06T22:56:18.211Z,0.40
2017-06-06T22:58:49.849Z,0.60
2017-06-06T23:01:21.365Z,0.40
2017-06-06T23:03:52.998Z,0.60
2017-06-06T23:06:25.289Z,0.60
2017-06-06T23:08:56.824Z,0.40
2017-06-06T23:11:28.404Z,0.37
2017-06-06T23:13:59.974Z,0.83
2017-06-06T23:16:41.372Z,0.50
2017-06-06T23:19:13.589Z,0.43
2017-06-06T23:21:46.046Z,0.60
2017-06-06T23:24:17.672Z,0.40
2017-06-06T23:26:49.215Z,0.50
2017-06-06T23:29:20.792Z,0.80
2017-06-06T23:31:52.503Z,0.70
2017-06-06T23:34:24.125Z,0.67
2017-06-06T23:36:55.678Z,0.40
2017-06-06T23:39:27.172Z,0.50
2017-06-06T23:41:58.774Z,0.60
2017-06-06T23:44:30.294Z,0.40
2017-06-06T23:47:01.869Z,0.50
2017-06-06T23:49:33.378Z,1.00
2017-06-06T23:52:04.986Z,0.43
2017-06-06T23:54:36.491Z,0.70
2017-06-06T23:57:08.112Z,0.50
2017-06-06T23:59:40.411Z,0.53
